Arden, North Carolina
Current Conditions -  °F | °C
As of 10:54 PM on Friday 31 Oct 2014 (Local Time) from KAVL Reporting Station
Overcast Overcast  
Wind Chill: 31°   Ceiling: 10000
Heat Index: 40°   Visibility: 10mi
Dew Point: 31°   Wind: 16mph
Humidity: 70%   Direction: 340°NNW
Pressure: 29.83"   Gusts: 28mph
Location:  35.47°N, 82.52°W
Report Text: KAVL 010254Z AUTO 34014G24KT 10SM FEW029 SCT036 OVC100 04/M01 A2983 RMK AO2 PK WND 32027/0240 SLP097 60000 T00441006 55004
Loading
Personal Weather Stations






























Interactive Weather Map New forecast layout! Learn more

10-Day Weather Forecast

Advertisements
Track Severe Weather on mobile